Date,TemperatureHighF,TemperatureAvgF,TemperatureLowF,DewpointHighF,DewpointAvgF,DewpointLowF,HumidityHigh,HumidityAvg,HumidityLow,PressureMaxIn,PressureMinIn,WindSpeedMaxMPH,WindSpeedAvgMPH,GustSpeedMaxMPH,PrecipitationSumIn
2012-1-1,29.0,18.3,13.0,18.0,5.2,2.0,69,57,40,0.00,40.00,24,15,35,0.00
2012-1-2,50.0,42.4,29.0,23.0,16.3,12.0,65,37,22,0.00,40.00,35,24,53,0.00
2012-1-3,42.0,35.3,31.0,20.0,15.1,11.0,60,44,30,0.00,40.00,40,26,73,0.00
2012-1-4,48.0,43.7,35.0,20.0,17.4,11.0,40,35,27,0.00,40.00,36,30,67,0.00
2012-1-5,46.0,37.2,22.0,19.0,14.6,10.0,61,42,24,0.00,40.00,45,29,73,0.00
2012-1-6,27.0,21.8,19.0,11.0,8.5,6.0,66,56,42,0.00,40.00,28,18,48,0.00
2012-1-7,24.0,19.5,16.0,11.0,8.9,6.0,74,63,53,0.00,40.00,19,14,35,0.00
2012-1-8,36.0,28.3,19.0,24.0,17.1,6.0,69,63,54,0.00,40.00,28,23,48,0.00
2012-1-9,43.0,38.0,34.0,23.0,19.7,17.0,60,48,36,0.00,40.00,29,24,49,0.00
2012-1-10,38.0,26.4,4.0,25.0,13.4,-99.9,93,67,49,0.00,40.00,29,20,46,0.00
2012-1-11,17.0,3.8,-3.0,5.0,-13.7,-99.9,83,66,32,0.00,40.00,12,-108,21,0.00
2012-1-12,26.0,20.2,16.0,11.0,4.6,-4.0,68,51,30,0.00,40.00,25,19,41,0.00
2012-1-13,29.0,23.9,19.0,18.0,9.6,-2.0,90,56,34,0.00,40.00,34,23,63,0.00
2012-1-14,36.0,31.4,22.0,16.0,8.1,-5.0,51,37,29,0.00,40.00,24,16,38,0.00
2012-1-15,32.0,11.8,-2.0,19.0,4.2,-7.0,91,74,34,0.00,40.00,26,15,43,0.00
2012-1-16,6.0,-0.1,-7.0,1.0,-4.9,-12.0,82,80,77,0.00,40.00,16,4,23,0.00
2012-1-17,15.0,8.6,1.0,4.0,0.2,-3.0,84,69,50,0.00,40.00,30,25,48,0.00
2012-1-18,8.0,-6.4,-19.0,4.0,-11.5,-25.0,84,78,72,0.00,40.00,27,15,40,0.00
2012-1-19,20.0,2.2,-2.0,18.0,-2.3,-7.0,90,82,80,0.00,40.00,18,13,22,0.00
2012-1-20,30.0,26.2,11.0,28.0,21.8,7.0,92,84,73,0.00,40.00,22,18,33,0.00
2012-1-21,38.0,33.8,26.0,29.0,24.9,14.0,82,70,61,0.00,40.00,32,24,52,0.01
2012-1-22,26.0,21.7,19.0,14.0,8.6,2.0,68,57,37,0.00,40.00,32,22,59,0.01
2012-1-23,28.0,24.5,19.0,18.0,12.8,4.0,71,61,43,0.00,40.00,26,20,39,0.00
2012-1-24,32.0,23.5,18.0,13.0,0.9,-6.0,55,38,24,0.00,40.00,39,23,58,0.00
2012-1-25,35.0,30.2,23.0,24.0,17.1,12.0,73,58,45,0.00,40.00,39,33,75,0.00
2012-1-26,33.0,27.6,18.0,23.0,18.4,15.0,92,69,56,0.00,40.00,28,20,54,0.00
2012-1-27,18.0,14.5,11.0,15.0,8.5,2.0,89,78,53,0.00,40.00,27,13,50,0.00
2012-1-28,30.0,19.7,14.0,20.0,7.7,2.0,85,59,48,0.00,40.00,31,24,53,0.00
2012-1-29,39.0,35.5,30.0,26.0,22.1,19.0,72,58,45,0.00,40.00,41,34,66,0.00
2012-1-30,37.0,32.2,26.0,25.0,19.6,15.0,74,60,46,0.00,40.00,39,30,63,0.00
2012-1-31,34.0,27.5,25.0,16.0,14.3,11.0,66,57,38,0.00,40.00,25,19,50,0.00
2012-2-1,35.0,28.5,22.0,21.0,10.4,6.0,74,48,29,0.00,40.00,20,15,35,0.00
2012-2-2,28.0,22.2,18.0,24.0,19.4,15.0,93,89,74,0.00,40.00,20,11,32,0.00
2012-2-3,32.0,25.0,18.0,16.0,12.6,4.0,89,61,36,0.00,40.00,16,9,21,0.00
2012-2-4,44.0,39.0,30.0,13.0,6.4,0.0,35,26,18,0.00,40.00,13,7,18,0.00
2012-2-5,45.0,34.6,24.0,20.0,5.2,-9.0,79,32,12,0.00,40.00,19,10,28,0.00
2012-2-6,24.0,16.4,11.0,19.0,13.4,8.0,92,88,79,0.00,40.00,16,5,25,0.00
2012-2-7,16.0,11.2,8.0,13.0,7.5,4.0,86,85,81,0.00,40.00,6,1,7,0.00
2012-2-8,32.0,25.2,12.0,18.0,11.5,7.0,87,58,37,0.00,40.00,26,10,47,0.00
2012-2-9,28.0,21.7,16.0,22.0,12.1,6.0,88,67,47,0.00,40.00,35,22,54,0.00
2012-2-10,16.0,10.6,3.0,13.0,5.4,-13.0,88,80,39,0.00,40.00,14,6,21,0.00
2012-2-11,29.0,17.5,7.0,19.0,5.5,-13.0,81,61,34,0.00,40.00,20,16,33,0.00
2012-2-12,35.0,30.1,26.0,23.0,21.7,20.0,86,71,62,0.00,40.00,13,8,20,0.00
2012-2-13,30.0,26.3,24.0,22.0,19.1,16.0,87,74,63,0.00,40.00,15,11,25,0.00
2012-2-14,26.0,18.3,13.0,19.0,13.9,10.0,91,83,60,0.00,40.00,17,9,30,0.00
2012-2-15,21.0,17.3,13.0,12.0,9.7,7.0,87,72,56,0.00,40.00,23,11,40,0.00
2012-2-16,31.0,23.5,17.0,15.0,8.2,5.0,71,52,37,0.00,40.00,23,18,40,0.00
2012-2-17,30.0,23.9,21.0,25.0,18.7,13.0,91,81,59,0.00,40.00,18,10,35,0.00
2012-2-18,32.0,27.7,23.0,25.0,15.1,8.0,80,60,40,0.00,40.00,21,14,33,0.00
2012-2-19,29.0,22.2,16.0,13.0,8.8,7.0,70,56,40,0.00,40.00,18,15,33,0.00
2012-2-20,19.0,17.8,16.0,16.0,12.5,7.0,89,80,62,0.00,40.00,21,13,34,0.00
2012-2-21,32.0,25.1,18.0,28.0,21.0,15.0,95,85,60,0.00,40.00,31,19,63,0.00
2012-2-22,32.0,25.9,19.0,31.0,20.5,-99.9,97,91,91,0.00,40.00,13,4,30,0.01
2012-2-23,20.0,17.6,16.0,18.0,10.4,-99.9,91,86,89,0.00,40.00,0,0,5,0.01
2012-2-24,28.0,17.4,14.0,27.0,9.9,-99.9,94,85,88,0.00,40.00,36,2,3,0.02
2012-2-25,30.0,23.9,6.0,26.0,10.9,-99.9,95,79,75,0.00,40.00,19,-37,28,0.01
2012-2-26,17.0,4.4,0.0,14.0,-16.8,-99.9,89,69,82,0.00,40.00,7,-126,10,0.00
2012-2-27,27.0,21.0,15.0,25.0,17.9,11.0,92,87,85,0.00,40.00,0,0,0,0.02
2012-2-28,30.0,22.9,16.0,14.0,9.4,4.0,84,56,50,0.00,40.00,11,5,17,0.02
2012-2-29,33.0,24.4,15.0,20.0,11.4,5.0,91,60,43,0.00,40.00,26,20,43,0.00
2012-3-1,24.0,16.6,9.0,16.0,8.5,4.0,89,71,54,0.00,40.00,26,18,49,0.00
2012-3-2,18.0,13.6,8.0,15.0,10.2,4.0,88,86,84,0.00,40.00,24,14,42,0.00
2012-3-3,34.0,27.1,18.0,25.0,19.1,13.0,88,72,59,0.00,40.00,37,28,63,0.00
2012-3-4,44.0,33.3,24.0,29.0,21.2,13.0,95,65,36,0.00,40.00,31,20,54,0.00
2012-3-5,43.0,37.9,33.0,19.0,17.1,13.0,51,43,35,0.00,40.00,35,26,56,0.00
2012-3-6,36.0,18.6,9.0,26.0,14.4,5.0,95,84,45,0.00,40.00,21,11,40,0.00
2012-3-7,22.0,16.1,9.0,17.0,9.2,5.0,87,75,48,0.00,40.00,22,12,40,0.00
2012-3-8,41.0,31.8,20.0,16.0,10.9,7.0,58,42,27,0.00,40.00,27,22,43,0.00
2012-3-9,48.0,43.4,37.0,13.0,8.5,4.0,28,24,17,0.00,40.00,32,28,50,0.00
2012-3-10,55.0,46.5,40.0,15.0,6.9,3.0,35,20,14,0.00,40.00,25,18,41,0.00
2012-3-11,52.0,44.0,31.0,25.0,15.7,11.0,71,34,20,0.00,40.00,25,17,45,0.00
2012-3-12,41.0,32.2,23.0,21.0,14.5,6.0,68,49,31,0.00,40.00,28,19,43,0.00
2012-3-13,52.0,40.7,23.0,25.0,16.1,1.0,93,40,24,0.00,40.00,39,28,66,0.00
2012-3-14,33.0,27.6,21.0,30.0,18.7,1.0,96,72,37,0.00,40.00,29,16,44,0.02
2012-3-15,51.0,41.1,33.0,30.0,26.0,22.0,87,57,39,0.00,40.00,30,23,41,0.01
2012-3-16,47.0,39.5,32.0,33.0,26.5,20.0,97,63,39,0.00,40.00,32,20,47,0.00
2012-3-17,49.0,37.8,31.0,32.0,26.0,4.0,97,64,23,0.00,40.00,27,19,55,0.00
2012-3-18,39.0,33.7,25.0,30.0,26.6,23.0,94,76,59,0.00,40.00,25,12,37,0.00
2012-3-19,26.0,21.1,17.0,24.0,18.9,14.0,93,91,89,0.00,40.00,11,8,20,0.00
2012-3-20,31.0,23.4,15.0,20.0,13.8,-99.9,89,70,58,0.00,40.00,35,19,54,0.00
2012-3-21,47.0,36.2,30.0,26.0,22.8,20.0,75,59,43,0.00,40.00,35,16,61,0.01
2012-3-22,58.0,43.3,39.0,30.0,11.3,-99.9,68,36,22,0.00,40.00,22,-71,35,0.01
2012-3-23,44.0,33.4,24.0,34.0,24.8,17.0,98,72,52,0.00,40.00,24,13,34,0.00
2012-3-24,34.0,29.1,23.0,32.0,28.5,21.0,99,97,90,0.00,40.00,18,5,30,0.00
2012-3-25,45.0,34.3,28.0,36.0,25.3,-99.9,99,79,60,0.00,40.00,26,-28,44,0.00
2012-3-26,60.0,41.9,31.0,35.0,29.8,20.0,98,69,22,0.00,40.00,28,14,41,0.02
2012-3-27,43.0,34.5,27.0,30.0,21.9,14.0,96,66,31,0.00,40.00,19,14,42,0.02
2012-3-28,51.0,40.3,32.0,32.0,21.8,15.0,98,50,31,0.00,40.00,27,17,52,0.01
2012-3-29,43.0,36.0,29.0,23.0,18.2,13.0,74,50,33,0.00,40.00,32,22,52,0.01
2012-3-30,53.0,43.1,36.0,30.0,24.8,19.0,80,49,35,0.00,40.00,36,29,62,0.00
2012-3-31,56.0,47.3,36.0,35.0,32.8,29.0,78,58,43,0.00,40.00,24,16,40,0.00
2012-4-1,51.0,38.1,29.0,35.0,21.4,11.0,97,55,29,0.00,40.00,30,18,49,0.00
2012-4-2,41.0,30.1,23.0,14.0,10.9,7.0,62,46,27,0.00,40.00,21,11,36,0.00
2012-4-3,55.0,40.9,30.0,17.0,11.3,5.0,44,30,20,0.00,40.00,26,13,41,0.00
2012-4-4,63.0,49.8,31.0,27.0,18.1,13.0,67,31,16,0.00,40.00,27,14,50,0.00
2012-4-5,31.0,26.2,24.0,26.0,20.7,13.0,94,81,57,0.00,40.00,28,11,41,0.00
2012-4-6,26.0,22.3,20.0,25.0,14.9,-99.9,94,88,91,0.00,40.00,17,10,23,0.00
2012-4-7,30.0,24.9,20.0,27.0,20.9,12.0,91,85,57,0.00,40.00,19,5,30,0.04
2012-4-8,36.0,29.1,23.0,15.0,11.6,9.0,60,48,37,0.00,40.00,21,13,30,0.01
2012-4-9,40.0,31.7,25.0,22.0,16.8,13.0,66,54,40,0.00,40.00,22,10,31,0.00
2012-4-10,43.0,34.0,27.0,20.0,15.4,11.0,57,46,39,0.00,40.00,27,21,43,0.00
2012-4-11,56.0,46.9,37.0,36.0,27.3,16.0,66,47,21,0.00,40.00,28,24,43,0.00
2012-4-12,50.0,38.4,32.0,37.0,27.1,-99.9,98,76,50,0.00,40.00,28,19,45,0.19
2012-4-13,47.0,38.6,33.0,23.0,18.2,8.0,60,45,26,0.00,40.00,23,15,39,0.04
2012-4-14,46.0,39.8,31.0,22.0,15.1,9.0,70,37,28,0.00,40.00,17,10,27,0.00
2012-4-15,31.0,22.6,19.0,28.0,20.3,17.0,96,91,70,0.00,40.00,19,5,25,0.00
2012-4-16,43.0,29.9,19.0,35.0,25.0,17.0,99,84,45,0.00,40.00,18,6,29,0.06
2012-4-17,41.0,35.0,32.0,35.0,26.9,22.0,99,73,52,0.00,40.00,24,16,44,0.03
2012-4-18,35.0,32.5,30.0,34.0,30.3,27.0,98,92,77,0.00,40.00,17,11,28,0.10
2012-4-19,40.0,33.9,29.0,30.0,26.0,21.0,93,74,54,0.00,40.00,17,12,32,0.07
2012-4-20,52.0,41.9,33.0,34.0,26.8,17.0,65,55,41,0.00,40.00,31,22,64,0.01
2012-4-21,50.0,41.2,33.0,27.0,24.0,19.0,70,51,33,0.00,40.00,25,11,46,0.00
2012-4-22,68.0,53.0,40.0,33.0,27.9,21.0,61,41,18,0.00,40.00,14,8,20,0.00
2012-4-23,73.0,64.5,57.0,35.0,29.4,20.0,44,27,20,0.00,40.00,18,10,54,0.00
2012-4-24,63.0,57.8,54.0,37.0,32.4,28.0,42,38,28,0.00,40.00,22,17,47,0.00
2012-4-25,67.0,54.4,46.0,35.0,31.3,29.0,54,42,27,0.00,40.00,17,11,29,0.00
2012-4-26,58.0,52.9,43.0,43.0,36.6,30.0,97,55,42,0.00,40.00,24,18,41,0.00
2012-4-27,43.0,29.3,28.0,42.0,18.7,-99.9,98,86,90,0.00,40.00,23,14,39,0.13
2012-4-28,29.0,27.3,25.0,28.0,26.3,24.0,97,96,95,0.00,40.00,0,0,0,0.01
2012-4-29,42.0,32.3,25.0,39.0,28.9,24.0,99,88,66,0.00,40.00,17,6,29,0.21
2012-4-30,46.0,38.7,34.0,40.0,28.8,21.0,99,69,47,0.00,40.00,28,17,46,0.07
2012-5-1,41.0,36.5,32.0,29.0,20.9,15.0,75,54,35,0.00,40.00,26,20,47,0.01
2012-5-2,45.0,34.1,29.0,26.0,18.9,14.0,80,54,38,0.00,40.00,25,13,41,0.00
2012-5-3,43.0,37.0,29.0,34.0,21.0,7.0,90,55,26,0.00,40.00,17,12,29,0.05
2012-5-4,54.0,43.5,38.0,34.0,31.4,28.0,84,64,40,0.00,40.00,17,11,31,0.05
2012-5-5,42.0,34.0,28.0,36.0,28.9,17.0,99,84,43,0.00,40.00,29,15,57,0.09
2012-5-6,39.0,31.3,27.0,28.0,23.7,17.0,97,76,46,0.00,40.00,33,24,60,0.01
2012-5-7,46.0,39.7,32.0,26.0,23.0,18.0,61,51,41,0.00,40.00,17,12,30,0.00
2012-5-8,64.0,51.8,37.0,31.0,24.6,18.0,50,36,22,0.00,40.00,12,8,18,0.00
2012-5-9,69.0,59.2,49.0,30.0,24.8,19.0,36,27,20,0.00,40.00,20,13,35,0.00
2012-5-10,49.0,33.9,27.0,32.0,23.3,12.0,98,70,27,0.00,40.00,24,18,48,0.05
2012-5-11,49.0,36.6,26.0,16.0,12.4,10.0,62,38,24,0.00,40.00,15,10,23,0.01
2012-5-12,59.0,48.2,37.0,19.0,10.7,7.0,31,22,14,0.00,40.00,14,8,24,0.00
2012-5-13,68.0,56.4,45.0,23.0,17.4,10.0,26,22,17,0.00,40.00,17,10,26,0.00
2012-5-14,62.0,55.6,48.0,26.0,21.4,16.0,33,26,22,0.00,40.00,24,14,38,0.00
2012-5-15,74.0,58.9,47.0,30.0,24.0,15.0,33,26,19,0.00,40.00,21,13,33,0.00
2012-5-16,72.0,64.7,55.0,32.0,27.0,16.0,42,24,18,0.00,40.00,22,9,36,0.00
2012-5-17,56.0,49.9,41.0,43.0,32.9,17.0,99,56,27,0.00,40.00,22,12,36,0.36
2012-5-18,41.0,38.2,32.0,41.0,35.2,29.0,99,89,85,0.00,40.00,22,15,36,0.49
2012-5-19,50.0,40.9,33.0,34.0,27.5,19.0,90,61,32,0.00,40.00,17,8,23,0.02
2012-5-20,62.0,49.7,38.0,37.0,32.9,29.0,81,54,35,0.00,40.00,14,7,23,0.02
2012-5-21,67.0,55.3,48.0,48.0,38.1,29.0,99,54,35,0.00,40.00,21,12,35,0.19
2012-5-22,56.0,46.0,39.0,47.0,36.6,23.0,99,72,44,0.00,40.00,27,18,46,0.41
2012-5-23,47.0,37.7,32.0,33.0,27.2,23.0,99,66,51,0.00,40.00,27,18,48,0.01
2012-5-24,33.0,31.5,28.0,33.0,30.2,26.0,99,95,92,0.00,40.00,21,13,32,0.01
2012-5-25,36.0,29.9,26.0,31.0,28.0,25.0,99,93,77,0.00,40.00,13,10,25,0.02
2012-5-26,32.0,29.3,26.0,32.0,29.3,25.0,99,99,97,0.00,40.00,11,4,21,0.03
2012-5-27,30.0,27.5,25.0,30.0,27.5,25.0,99,99,99,0.00,40.00,0,0,0,0.03
2012-5-28,33.0,29.5,25.0,33.0,29.5,25.0,99,99,99,0.00,40.00,16,2,23,0.00
2012-5-29,51.0,40.3,33.0,42.0,34.5,22.0,99,80,59,0.00,40.00,18,11,45,0.76
2012-5-30,46.0,42.1,37.0,36.0,29.0,21.0,86,60,46,0.00,40.00,21,16,38,0.01
2012-5-31,55.0,45.6,40.0,42.0,34.4,29.0,84,65,48,0.00,40.00,24,15,39,0.01
2012-6-1,57.0,49.5,42.0,43.0,38.3,34.0,81,66,52,0.00,40.00,22,14,35,0.00
2012-6-2,69.0,57.0,46.0,55.0,45.4,38.0,99,68,41,0.00,40.00,17,11,56,0.37
2012-6-3,64.0,50.9,41.0,46.0,34.4,27.0,94,55,33,0.00,40.00,20,11,35,0.37
2012-6-4,74.0,62.0,52.0,55.0,46.8,37.0,70,58,38,0.00,40.00,26,15,54,0.00
2012-6-5,75.0,66.4,51.0,55.0,46.6,33.0,99,51,27,0.00,40.00,33,19,53,0.00
2012-6-6,54.0,46.2,37.0,51.0,31.1,25.0,99,59,33,0.00,40.00,33,21,54,0.00
2012-6-7,60.0,50.8,42.0,41.0,30.9,24.0,76,47,38,0.00,40.00,18,10,35,0.00
2012-6-8,67.0,53.7,40.0,51.0,42.8,37.0,99,68,36,0.00,40.00,26,15,40,0.01
2012-6-9,48.0,40.8,36.0,40.0,31.9,23.0,99,73,41,0.00,40.00,23,12,37,0.02
2012-6-10,42.0,36.0,32.0,41.0,31.7,22.0,99,86,56,0.00,40.00,34,26,66,0.81
2012-6-11,58.0,45.2,37.0,49.0,39.5,36.0,100,83,53,0.00,40.00,27,13,44,0.57
2012-6-12,67.0,55.5,48.0,41.0,36.0,31.0,73,49,34,0.00,40.00,16,10,34,0.01
2012-6-13,54.0,49.3,41.0,47.0,36.2,28.0,99,63,42,0.00,40.00,30,20,55,0.10
2012-6-14,60.0,48.5,39.0,39.0,35.4,32.0,76,62,43,0.00,40.00,25,14,44,0.08
2012-6-15,56.0,50.6,43.0,36.0,32.6,28.0,63,51,37,0.00,40.00,19,14,32,0.00
2012-6-16,64.0,54.1,42.0,33.0,29.6,20.0,63,41,19,0.00,40.00,21,15,34,0.00
2012-6-17,62.0,55.6,47.0,41.0,35.3,26.0,74,48,30,0.00,40.00,28,21,51,0.04
2012-6-18,62.0,49.9,39.0,37.0,33.0,29.0,92,54,35,0.00,40.00,20,13,37,0.02
2012-6-19,44.0,39.9,35.0,40.0,34.6,29.0,99,82,65,0.00,40.00,26,18,45,0.02
2012-6-20,51.0,45.0,39.0,51.0,41.9,38.0,99,89,65,0.00,40.00,18,12,36,0.55
2012-6-21,72.0,57.8,45.0,43.0,37.6,32.0,71,49,28,0.00,40.00,22,9,31,0.02
2012-6-22,63.0,54.5,48.0,46.0,42.7,39.0,78,65,52,0.00,40.00,22,19,34,0.00
2012-6-23,65.0,56.2,48.0,55.0,49.7,45.0,99,80,61,0.00,40.00,25,20,44,0.00
2012-6-24,74.0,59.6,53.0,64.0,55.9,52.0,100,90,46,0.00,40.00,25,19,41,0.00
2012-6-25,81.0,74.9,67.0,60.0,55.2,32.0,73,52,21,0.00,40.00,17,12,31,0.00
2012-6-26,79.0,63.7,46.0,62.0,42.5,15.0,100,53,9,0.00,40.00,26,15,52,0.00
2012-6-27,62.0,50.7,41.0,31.0,25.4,21.0,52,38,24,0.00,40.00,30,18,48,0.00
2012-6-28,76.0,64.8,51.0,36.0,29.2,24.0,37,27,17,0.00,40.00,15,9,19,0.00
2012-6-29,75.0,65.8,59.0,43.0,35.2,28.0,51,33,23,0.00,40.00,19,13,31,0.00
2012-6-30,76.0,66.0,54.0,46.0,42.1,40.0,59,43,31,0.00,40.00,20,9,32,0.00
2012-7-1,71.0,62.7,48.0,50.0,43.0,35.0,99,50,27,0.00,40.00,28,19,59,0.38
2012-7-2,74.0,61.3,51.0,49.0,43.5,38.0,76,53,36,0.00,40.00,28,12,46,0.38
2012-7-3,81.0,66.5,51.0,50.0,38.8,25.0,53,38,18,0.00,40.00,25,19,40,0.00
2012-7-4,70.0,57.7,46.0,31.0,21.3,10.0,47,26,14,0.00,40.00,25,14,38,0.00
2012-7-5,63.0,55.6,50.0,44.0,32.7,11.0,65,44,15,0.00,40.00,18,13,31,0.00
2012-7-6,79.0,67.7,56.0,47.0,40.5,34.0,69,40,22,0.00,40.00,18,8,31,0.11
2012-7-7,77.0,69.9,59.0,47.0,38.9,32.0,50,33,24,0.00,40.00,17,9,26,0.11
2012-7-8,81.0,72.5,64.0,45.0,37.2,29.0,38,28,24,0.00,40.00,19,9,28,0.00
2012-7-9,84.0,76.1,66.0,41.0,34.8,27.0,30,23,14,0.00,40.00,14,5,24,0.00
2012-7-10,85.0,77.9,71.0,45.0,37.4,27.0,30,23,18,0.00,40.00,12,5,21,0.00
2012-7-11,80.0,71.6,65.0,47.0,38.6,31.0,52,31,19,0.00,40.00,16,8,27,0.00
2012-7-12,84.0,73.4,62.0,47.0,40.9,30.0,55,34,19,0.00,40.00,16,8,30,0.00
2012-7-13,85.0,75.4,69.0,47.0,36.9,30.0,44,25,18,0.00,40.00,20,12,52,0.00
2012-7-14,76.0,68.0,64.0,53.0,47.4,38.0,66,48,28,0.00,40.00,17,8,30,0.00
2012-7-15,76.0,62.9,55.0,56.0,50.8,44.0,100,68,37,0.00,40.00,20,12,46,0.02
2012-7-16,70.0,61.2,53.0,53.0,49.4,45.0,99,67,48,0.00,40.00,14,10,24,0.02
2012-7-17,75.0,63.5,55.0,54.0,51.7,47.0,91,68,41,0.00,40.00,12,7,28,0.01
2012-7-18,87.0,77.2,61.0,45.0,35.3,26.0,53,24,12,0.00,40.00,16,10,24,0.01
2012-7-19,84.0,76.0,68.0,40.0,37.6,33.0,32,25,19,0.00,40.00,18,7,25,0.00
2012-7-20,73.0,67.5,59.0,59.0,45.8,34.0,80,49,26,0.00,40.00,32,13,53,0.18
2012-7-21,82.0,69.8,60.0,57.0,50.8,34.0,81,55,26,0.00,40.00,19,8,32,0.22
2012-7-22,84.0,70.9,60.0,41.0,37.0,33.0,42,30,17,0.00,40.00,20,9,41,0.00
2012-7-23,85.0,71.8,61.0,47.0,41.9,30.0,51,36,16,0.00,40.00,22,12,42,0.00
2012-7-24,75.0,64.4,55.0,45.0,30.8,23.0,59,30,16,0.00,40.00,19,13,32,0.00
2012-7-25,68.0,57.7,50.0,43.0,40.2,36.0,71,53,35,0.00,40.00,21,14,32,0.00
2012-7-26,72.0,60.0,51.0,54.0,45.6,41.0,99,61,39,0.00,40.00,34,10,65,0.39
2012-7-27,74.0,64.7,55.0,52.0,46.6,41.0,75,53,32,0.00,40.00,18,10,30,0.39
2012-7-28,85.0,72.4,61.0,40.0,36.6,34.0,43,28,17,0.00,40.00,21,10,33,0.00
2012-7-29,78.0,69.3,62.0,43.0,37.6,33.0,42,32,21,0.00,40.00,18,10,29,0.00
2012-7-30,82.0,71.1,62.0,44.0,38.8,35.0,50,32,21,0.00,40.00,17,11,36,0.17
2012-7-31,75.0,68.7,62.0,42.0,37.1,31.0,42,32,24,0.00,40.00,24,12,33,0.08
2012-8-1,70.0,62.6,55.0,47.0,39.2,29.0,65,44,26,0.00,40.00,23,10,30,0.01
2012-8-2,71.0,63.7,51.0,47.0,33.4,24.0,86,36,17,0.00,40.00,20,12,32,0.03
2012-8-3,52.0,44.6,39.0,48.0,40.6,37.0,99,87,58,0.00,40.00,24,15,37,0.31
2012-8-4,69.0,54.1,42.0,44.0,39.3,32.0,99,64,26,0.00,40.00,24,9,36,0.02
2012-8-5,82.0,70.7,56.0,35.0,29.9,24.0,43,23,15,0.00,40.00,19,6,27,0.00
2012-8-6,85.0,76.0,68.0,37.0,31.9,26.0,32,20,15,0.00,40.00,18,8,29,0.00
2012-8-7,79.0,69.4,60.0,43.0,34.5,21.0,46,31,12,0.00,40.00,20,13,33,0.00
2012-8-8,83.0,73.4,65.0,43.0,36.1,30.0,45,27,16,0.00,40.00,16,11,30,0.00
2012-8-9,78.0,71.6,62.0,42.0,37.6,28.0,47,30,21,0.00,40.00,21,10,28,0.00
2012-8-10,77.0,69.4,64.0,46.0,39.3,35.0,43,34,27,0.00,40.00,24,14,43,0.00
2012-8-11,71.0,61.2,49.0,49.0,43.4,39.0,99,54,34,0.00,40.00,23,14,42,0.20
2012-8-12,72.0,61.3,54.0,52.0,44.9,38.0,72,55,44,0.00,40.00,19,10,33,0.01
2012-8-13,74.0,64.8,57.0,48.0,43.3,33.0,61,47,29,0.00,40.00,21,12,38,0.00
2012-8-14,78.0,68.4,52.0,46.0,33.3,26.0,79,30,16,0.00,40.00,30,14,41,0.00
2012-8-15,52.0,43.6,40.0,49.0,41.4,30.0,99,92,68,0.00,40.00,30,16,44,0.14
2012-8-16,69.0,49.9,37.0,39.0,33.0,27.0,76,56,26,0.00,40.00,14,6,21,0.01
2012-8-17,69.0,60.3,52.0,37.0,29.5,26.0,54,32,22,0.00,40.00,22,12,29,0.00
2012-8-18,72.0,63.2,53.0,33.0,27.3,23.0,36,27,16,0.00,40.00,13,6,22,0.00
2012-8-19,78.0,67.3,57.0,30.0,26.8,24.0,31,22,15,0.00,40.00,19,8,29,0.00
2012-8-20,77.0,71.5,64.0,31.0,26.1,20.0,24,19,12,0.00,40.00,13,6,21,0.00
2012-8-21,82.0,71.8,56.0,45.0,29.4,22.0,67,23,14,0.00,40.00,28,10,46,0.01
2012-8-22,72.0,62.6,55.0,45.0,39.0,31.0,67,44,23,0.00,40.00,21,10,31,0.02
2012-8-23,78.0,69.7,60.0,36.0,27.5,19.0,40,21,14,0.00,40.00,15,10,21,0.00
2012-8-24,64.0,54.9,41.0,32.0,22.4,6.0,67,32,12,0.00,40.00,25,17,50,0.00
2012-8-25,62.0,51.6,42.0,30.0,24.0,16.0,63,36,20,0.00,40.00,18,10,28,0.00
2012-8-26,69.0,57.1,47.0,28.0,25.7,20.0,42,31,21,0.00,40.00,19,14,33,0.00
2012-8-27,84.0,71.8,59.0,39.0,33.8,26.0,38,25,15,0.00,40.00,19,9,43,0.00
2012-8-28,89.0,77.5,65.0,40.0,26.5,15.0,39,18,7,0.00,40.00,29,13,49,0.00
2012-8-29,76.0,66.6,53.0,32.0,25.4,18.0,33,21,12,0.00,40.00,29,16,51,0.00
2012-8-30,75.0,61.6,51.0,34.0,26.9,18.0,46,29,13,0.00,40.00,16,8,26,0.00
2012-8-31,80.0,70.8,62.0,35.0,27.9,18.0,30,21,10,0.00,40.00,22,12,43,0.00
2012-9-1,77.0,63.4,55.0,46.0,37.2,23.0,70,40,22,0.00,40.00,21,14,50,0.04
2012-9-2,70.0,58.6,48.0,17.0,13.5,6.0,23,17,12,0.00,40.00,19,14,32,0.03
2012-9-3,65.0,57.0,47.0,25.0,21.4,17.0,38,26,18,0.00,40.00,19,12,31,0.00
2012-9-4,56.0,49.2,41.0,38.0,30.0,22.0,88,49,26,0.00,40.00,24,13,42,0.00
2012-9-5,65.0,54.6,47.0,33.0,28.8,26.0,57,38,25,0.00,40.00,18,11,28,0.00
2012-9-6,48.0,44.4,41.0,39.0,36.5,33.0,85,74,57,0.00,40.00,18,10,27,0.00
2012-9-7,65.0,53.4,42.0,39.0,31.2,22.0,80,47,21,0.00,40.00,13,8,19,0.00
2012-9-8,70.0,63.0,53.0,31.0,25.8,20.0,31,24,21,0.00,40.00,19,10,31,0.00
2012-9-9,79.0,69.1,60.0,29.0,19.6,10.0,27,16,7,0.00,40.00,23,12,38,0.00
2012-9-10,69.0,60.9,43.0,32.0,25.3,15.0,47,27,13,0.00,40.00,26,17,41,0.00
2012-9-11,50.0,43.6,39.0,27.0,15.9,3.0,58,35,18,0.00,40.00,28,18,42,0.00
2012-9-12,53.0,42.9,35.0,16.0,12.7,7.0,38,29,21,0.00,40.00,16,8,27,0.00
2012-9-13,67.0,54.1,42.0,28.0,21.5,13.0,33,28,21,0.00,40.00,20,10,29,0.00
2012-9-14,75.0,63.7,54.0,23.0,12.7,-3.0,30,15,5,0.00,40.00,20,15,31,0.00
2012-9-15,71.0,63.0,56.0,24.0,21.2,11.0,26,20,12,0.00,40.00,14,7,21,0.00
2012-9-16,58.0,49.2,40.0,33.0,27.5,22.0,63,45,26,0.00,40.00,14,8,23,0.00
2012-9-17,61.0,50.3,39.0,32.0,27.2,23.0,67,43,26,0.00,40.00,20,10,30,0.00
2012-9-18,72.0,60.5,51.0,29.0,23.8,9.0,38,26,10,0.00,40.00,23,15,43,0.00
2012-9-19,65.0,53.0,42.0,30.0,26.3,23.0,58,37,23,0.00,40.00,17,9,29,0.00
2012-9-20,62.0,55.7,50.0,30.0,26.2,22.0,35,32,29,0.00,40.00,24,16,35,0.00
2012-9-21,64.0,57.9,52.0,33.0,29.7,28.0,45,34,26,0.00,40.00,18,10,25,0.00
2012-9-22,69.0,60.0,52.0,31.0,30.1,28.0,45,33,23,0.00,40.00,17,12,30,0.00
2012-9-23,67.0,59.2,53.0,30.0,27.6,23.0,39,30,23,0.00,40.00,17,12,25,0.00
2012-9-24,70.0,62.4,56.0,31.0,27.9,25.0,32,27,22,0.00,40.00,12,5,16,0.00
2012-9-25,69.0,62.0,56.0,32.0,28.2,23.0,31,28,24,0.00,40.00,9,5,14,0.00
2012-9-26,59.0,49.0,44.0,46.0,38.8,26.0,99,70,28,0.00,40.00,12,7,21,0.00
2012-9-27,62.0,53.0,46.0,42.0,39.5,37.0,82,61,44,0.00,40.00,16,6,26,0.00
2012-9-28,70.0,58.9,49.0,38.0,35.1,30.0,64,43,28,0.00,40.00,15,8,21,0.00
2012-9-29,64.0,58.1,53.0,36.0,30.9,26.0,43,36,28,0.00,40.00,19,13,35,0.00
2012-9-30,56.0,51.1,46.0,37.0,33.8,28.0,63,52,38,0.00,40.00,19,13,32,0.00
2012-10-1,66.0,57.3,45.0,33.0,26.6,22.0,54,32,21,0.00,40.00,33,15,48,0.00
2012-10-2,60.0,52.5,34.0,34.0,28.8,22.0,99,43,24,0.00,40.00,33,16,55,0.00
2012-10-3,34.0,26.6,26.0,34.0,21.5,-99.9,99,94,97,0.00,40.00,16,6,26,0.00
2012-10-4,33.0,26.6,24.0,33.0,26.6,24.0,99,99,99,0.00,40.00,0,0,0,0.06
2012-10-5,30.0,23.1,19.0,30.0,23.0,17.0,99,98,93,0.00,40.00,0,0,0,0.02
2012-10-6,34.0,26.5,19.0,33.0,24.4,18.0,99,92,71,0.00,40.00,19,7,32,0.00
2012-10-7,48.0,39.1,32.0,33.0,28.3,21.0,99,70,36,0.00,40.00,22,17,35,0.39
2012-10-8,42.0,33.6,28.0,35.0,30.4,24.0,99,89,50,0.00,40.00,20,15,35,0.09
2012-10-9,38.0,30.9,27.0,34.0,29.6,26.0,99,95,63,0.00,40.00,17,6,28,0.12
2012-10-10,48.0,40.0,30.0,35.0,28.4,20.0,99,66,41,0.00,40.00,23,16,38,0.01
2012-10-11,44.0,26.8,21.0,35.0,26.2,20.0,99,97,54,0.00,40.00,14,4,19,0.03
2012-10-12,63.0,54.5,43.0,26.0,18.5,13.0,51,25,15,0.00,40.00,23,18,40,0.02
2012-10-13,51.0,45.6,41.0,39.0,28.5,14.0,86,54,22,0.00,40.00,26,18,46,0.00
2012-10-14,53.0,45.6,39.0,34.0,30.7,25.0,71,57,36,0.00,40.00,31,23,50,0.00
2012-10-15,51.0,46.2,41.0,42.0,33.7,27.0,98,64,40,0.00,40.00,34,23,63,0.02
2012-10-16,43.0,42.1,41.0,33.0,32.1,31.0,68,67,67,0.00,40.00,23,22,33,0.02